Time,TemperatureF,DewpointF,PressureIn,WindDirection,WindDirectionDegrees,WindSpeedMPH,WindSpeedGustMPH,Humidity,HourlyPrecipIn,Conditions,Clouds,dailyrainin,SoftwareType,DateUTC
2013-08-10 00:03:00,50.9,50.6,29.98,North,360,3.0,10.0,99,0.00,,,0.00,Wunderground v.1.15,2013-08-10 07:03:00,
2013-08-10 00:08:00,50.8,50.5,29.98,North,360,2.0,10.0,99,0.00,,,0.00,Wunderground v.1.15,2013-08-10 07:08:00,
2013-08-10 00:13:00,50.7,50.4,29.98,North,360,1.0,2.0,99,0.00,,,0.00,Wunderground v.1.15,2013-08-10 07:13:00,
2013-08-10 00:19:00,50.5,50.2,29.99,North,360,1.0,2.0,99,0.00,,,0.00,Wunderground v.1.15,2013-08-10 07:19:00,
2013-08-10 00:24:00,50.4,50.1,29.99,North,360,1.0,1.0,99,0.00,,,0.00,Wunderground v.1.15,2013-08-10 07:24:00,
2013-08-10 00:29:00,50.4,50.1,29.99,North,360,1.0,2.0,99,0.00,,,0.00,Wunderground v.1.15,2013-08-10 07:29:00,
2013-08-10 00:34:00,50.5,50.2,29.98,North,360,1.0,1.0,99,0.00,,,0.00,Wunderground v.1.15,2013-08-10 07:34:00,
2013-08-10 00:39:00,50.4,50.1,29.98,North,360,0.0,2.0,99,0.00,,,0.00,Wunderground v.1.15,2013-08-10 07:39:00,
2013-08-10 00:45:00,50.4,50.1,29.99,North,360,0.0,1.0,99,0.00,,,0.00,Wunderground v.1.15,2013-08-10 07:45:00,
2013-08-10 00:51:00,50.5,50.5,29.99,North,360,0.0,2.0,100,0.00,,,0.00,Wunderground v.1.15,2013-08-10 07:51:00,
2013-08-10 00:56:00,50.5,50.5,29.99,North,360,0.0,2.0,100,0.00,,,0.00,Wunderground v.1.15,2013-08-10 07:56:00,
2013-08-10 01:01:00,50.7,50.7,29.99,North,360,0.0,1.0,100,0.00,,,0.00,Wunderground v.1.15,2013-08-10 08:01:00,
2013-08-10 01:07:00,50.7,50.7,29.99,North,360,1.0,7.0,100,0.00,,,0.00,Wunderground v.1.15,2013-08-10 08:07:00,
2013-08-10 01:12:00,50.6,50.6,29.99,North,360,1.0,7.0,100,0.00,,,0.00,Wunderground v.1.15,2013-08-10 08:12:00,
2013-08-10 01:17:00,50.7,50.7,29.99,North,360,2.0,7.0,100,0.00,,,0.00,Wunderground v.1.15,2013-08-10 08:17:00,
2013-08-10 01:23:00,50.5,50.5,30.00,North,360,1.0,7.0,100,0.00,,,0.00,Wunderground v.1.15,2013-08-10 08:23:00,
2013-08-10 01:28:00,50.5,50.5,29.99,North,360,0.0,7.0,100,0.00,,,0.00,Wunderground v.1.15,2013-08-10 08:28:00,
2013-08-10 01:34:00,50.5,50.5,29.99,North,360,0.0,7.0,100,0.00,,,0.00,Wunderground v.1.15,2013-08-10 08:34:00,
2013-08-10 01:39:00,50.6,50.6,29.99,North,360,0.0,7.0,100,0.00,,,0.00,Wunderground v.1.15,2013-08-10 08:39:00,
2013-08-10 01:45:00,50.7,50.7,29.99,North,360,0.0,7.0,100,0.00,,,0.00,Wunderground v.1.15,2013-08-10 08:45:00,
2013-08-10 01:50:00,50.8,50.8,29.99,North,360,0.0,7.0,100,0.00,,,0.00,Wunderground v.1.15,2013-08-10 08:50:00,
2013-08-10 01:55:00,50.9,50.9,29.99,North,360,1.0,7.0,100,0.00,,,0.00,Wunderground v.1.15,2013-08-10 08:55:00,
2013-08-10 02:01:00,50.8,50.8,29.98,North,360,1.0,7.0,100,0.00,,,0.00,Wunderground v.1.15,2013-08-10 09:01:00,
2013-08-10 02:06:00,50.9,50.9,29.98,North,360,1.0,7.0,100,0.00,,,0.00,Wunderground v.1.15,2013-08-10 09:06:00,
2013-08-10 02:12:00,51.0,51.0,29.98,North,360,1.0,7.0,100,0.00,,,0.00,Wunderground v.1.15,2013-08-10 09:12:00,
2013-08-10 02:18:00,51.0,51.0,29.98,North,360,1.0,7.0,100,0.00,,,0.00,Wunderground v.1.15,2013-08-10 09:18:00,
2013-08-10 02:24:00,51.0,51.0,29.98,North,360,1.0,7.0,100,0.00,,,0.00,Wunderground v.1.15,2013-08-10 09:24:00,
2013-08-10 02:29:00,51.1,51.1,29.98,North,360,1.0,7.0,100,0.00,,,0.00,Wunderground v.1.15,2013-08-10 09:29:00,
2013-08-10 02:34:00,51.0,51.0,29.98,North,360,2.0,7.0,100,0.00,,,0.00,Wunderground v.1.15,2013-08-10 09:34:00,
2013-08-10 02:40:00,51.2,51.2,29.98,North,360,1.0,7.0,100,0.00,,,0.00,Wunderground v.1.15,2013-08-10 09:40:00,
2013-08-10 02:46:00,51.1,51.1,29.98,North,360,1.0,7.0,100,0.00,,,0.00,Wunderground v.1.15,2013-08-10 09:46:00,
2013-08-10 02:51:00,51.0,51.0,29.98,North,360,1.0,7.0,100,0.00,,,0.00,Wunderground v.1.15,2013-08-10 09:51:00,
2013-08-10 02:57:00,51.0,51.0,29.98,North,360,2.0,7.0,100,0.00,,,0.00,Wunderground v.1.15,2013-08-10 09:57:00,
2013-08-10 03:02:00,51.1,51.1,29.99,North,360,2.0,7.0,100,0.00,,,0.00,Wunderground v.1.15,2013-08-10 10:02:00,
2013-08-10 03:08:00,51.2,51.2,29.99,North,360,1.0,7.0,100,0.00,,,0.00,Wunderground v.1.15,2013-08-10 10:08:00,
2013-08-10 03:14:00,51.4,51.4,29.99,North,360,2.0,7.0,100,0.00,,,0.00,Wunderground v.1.15,2013-08-10 10:14:00,
2013-08-10 03:20:00,51.6,51.6,29.99,North,360,2.0,7.0,100,0.00,,,0.00,Wunderground v.1.15,2013-08-10 10:20:00,
2013-08-10 03:26:00,51.7,51.7,29.99,North,360,3.0,7.0,100,0.00,,,0.00,Wunderground v.1.15,2013-08-10 10:26:00,
2013-08-10 03:32:00,51.7,51.7,29.99,North,360,2.0,7.0,100,0.00,,,0.00,Wunderground v.1.15,2013-08-10 10:32:00,
2013-08-10 03:38:00,51.7,51.7,29.99,North,360,3.0,7.0,100,0.00,,,0.00,Wunderground v.1.15,2013-08-10 10:38:00,
2013-08-10 03:43:00,51.7,51.7,29.99,North,360,2.0,7.0,100,0.00,,,0.00,Wunderground v.1.15,2013-08-10 10:43:00,
2013-08-10 03:48:00,51.6,51.6,29.99,North,360,2.0,7.0,100,0.00,,,0.00,Wunderground v.1.15,2013-08-10 10:48:00,
2013-08-10 03:54:00,51.5,51.5,29.99,North,360,2.0,7.0,100,0.00,,,0.00,Wunderground v.1.15,2013-08-10 10:54:00,
2013-08-10 04:00:00,51.6,51.6,29.99,North,360,2.0,7.0,100,0.00,,,0.00,Wunderground v.1.15,2013-08-10 11:00:00,
2013-08-10 04:06:00,51.7,51.7,29.99,North,360,2.0,7.0,100,0.00,,,0.00,Wunderground v.1.15,2013-08-10 11:06:00,
2013-08-10 04:11:00,51.9,51.9,29.99,North,360,1.0,7.0,100,0.00,,,0.00,Wunderground v.1.15,2013-08-10 11:11:00,
2013-08-10 04:16:00,51.7,51.7,29.99,North,360,1.0,7.0,100,0.00,,,0.00,Wunderground v.1.15,2013-08-10 11:16:00,
2013-08-10 04:22:00,51.5,51.5,29.99,North,360,1.0,7.0,100,0.00,,,0.00,Wunderground v.1.15,2013-08-10 11:22:00,
2013-08-10 04:27:00,51.7,51.7,29.99,North,360,1.0,7.0,100,0.00,,,0.00,Wunderground v.1.15,2013-08-10 11:27:00,
2013-08-10 04:33:00,52.1,52.1,29.99,North,360,1.0,7.0,100,0.00,,,0.00,Wunderground v.1.15,2013-08-10 11:33:00,
2013-08-10 04:38:00,52.2,52.2,30.00,North,360,1.0,7.0,100,0.00,,,0.00,Wunderground v.1.15,2013-08-10 11:38:00,
2013-08-10 04:44:00,52.3,52.3,30.00,North,360,1.0,7.0,100,0.00,,,0.00,Wunderground v.1.15,2013-08-10 11:44:00,
2013-08-10 04:49:00,52.5,52.5,30.00,North,360,1.0,7.0,100,0.00,,,0.00,Wunderground v.1.15,2013-08-10 11:49:00,
2013-08-10 04:55:00,52.5,52.5,30.00,North,360,1.0,7.0,100,0.00,,,0.00,Wunderground v.1.15,2013-08-10 11:55:00,
2013-08-10 05:01:00,52.4,52.4,30.00,North,360,1.0,7.0,100,0.00,,,0.00,Wunderground v.1.15,2013-08-10 12:01:00,
2013-08-10 05:06:00,52.4,52.4,30.00,North,360,1.0,7.0,100,0.00,,,0.00,Wunderground v.1.15,2013-08-10 12:06:00,
2013-08-10 05:12:00,52.3,52.3,30.00,North,360,0.0,7.0,100,0.00,,,0.00,Wunderground v.1.15,2013-08-10 12:12:00,
2013-08-10 05:18:00,52.4,52.4,30.00,North,360,0.0,7.0,100,0.00,,,0.00,Wunderground v.1.15,2013-08-10 12:18:00,
2013-08-10 05:23:00,52.4,52.4,30.00,North,360,0.0,7.0,100,0.00,,,0.00,Wunderground v.1.15,2013-08-10 12:23:00,
2013-08-10 05:29:00,52.2,52.2,30.00,North,360,0.0,7.0,100,0.00,,,0.00,Wunderground v.1.15,2013-08-10 12:29:00,
2013-08-10 05:35:00,51.9,51.9,30.00,North,360,0.0,7.0,100,0.00,,,0.00,Wunderground v.1.15,2013-08-10 12:35:00,
2013-08-10 05:41:00,51.7,51.7,30.00,North,360,0.0,7.0,100,0.00,,,0.00,Wunderground v.1.15,2013-08-10 12:41:00,
2013-08-10 05:47:00,52.0,52.0,30.00,North,360,0.0,7.0,100,0.00,,,0.00,Wunderground v.1.15,2013-08-10 12:47:00,
2013-08-10 05:52:00,52.1,52.1,30.00,North,360,0.0,7.0,100,0.00,,,0.00,Wunderground v.1.15,2013-08-10 12:52:00,
2013-08-10 05:58:00,52.0,52.0,30.00,North,360,0.0,7.0,100,0.00,,,0.00,Wunderground v.1.15,2013-08-10 12:58:00,
2013-08-10 06:03:00,51.8,51.8,30.00,North,360,0.0,7.0,100,0.00,,,0.00,Wunderground v.1.15,2013-08-10 13:03:00,
2013-08-10 06:08:00,52.1,52.1,30.00,North,360,0.0,7.0,100,0.00,,,0.00,Wunderground v.1.15,2013-08-10 13:08:00,
2013-08-10 06:14:00,52.1,52.1,30.00,North,360,0.0,7.0,100,0.00,,,0.00,Wunderground v.1.15,2013-08-10 13:14:00,
2013-08-10 06:19:00,52.2,52.2,30.00,North,360,0.0,7.0,100,0.00,,,0.00,Wunderground v.1.15,2013-08-10 13:19:00,
2013-08-10 06:25:00,52.2,52.2,30.00,North,360,1.0,7.0,100,0.00,,,0.00,Wunderground v.1.15,2013-08-10 13:25:00,
2013-08-10 06:30:00,52.1,52.1,30.00,North,360,0.0,7.0,100,0.00,,,0.00,Wunderground v.1.15,2013-08-10 13:30:00,
2013-08-10 06:36:00,52.2,52.2,30.00,North,360,0.0,7.0,100,0.00,,,0.00,Wunderground v.1.15,2013-08-10 13:36:00,
2013-08-10 06:41:00,51.8,51.8,30.01,North,360,0.0,7.0,100,0.00,,,0.00,Wunderground v.1.15,2013-08-10 13:41:00,
2013-08-10 06:46:00,51.5,51.5,30.00,North,360,1.0,7.0,100,0.00,,,0.00,Wunderground v.1.15,2013-08-10 13:46:00,
2013-08-10 06:52:00,51.4,51.4,30.00,North,360,0.0,7.0,100,0.00,,,0.00,Wunderground v.1.15,2013-08-10 13:52:00,
2013-08-10 06:58:00,51.2,51.2,30.01,North,360,0.0,7.0,100,0.00,,,0.00,Wunderground v.1.15,2013-08-10 13:58:00,
2013-08-10 07:03:00,51.0,51.0,30.00,North,360,0.0,7.0,100,0.00,,,0.00,Wunderground v.1.15,2013-08-10 14:03:00,
2013-08-10 07:09:00,51.2,51.2,30.00,North,360,0.0,7.0,100,0.00,,,0.00,Wunderground v.1.15,2013-08-10 14:09:00,
2013-08-10 07:14:00,51.3,51.3,30.01,North,360,0.0,7.0,100,0.00,,,0.00,Wunderground v.1.15,2013-08-10 14:14:00,
2013-08-10 07:19:00,51.3,51.3,30.01,North,360,0.0,7.0,100,0.00,,,0.00,Wunderground v.1.15,2013-08-10 14:19:00,
2013-08-10 07:25:00,51.2,51.2,30.01,North,360,1.0,7.0,100,0.00,,,0.00,Wunderground v.1.15,2013-08-10 14:25:00,
2013-08-10 07:30:00,51.2,51.2,30.00,North,360,0.0,7.0,100,0.00,,,0.00,Wunderground v.1.15,2013-08-10 14:30:00,
2013-08-10 07:36:00,51.2,51.2,30.01,North,360,0.0,7.0,100,0.00,,,0.00,Wunderground v.1.15,2013-08-10 14:36:00,
2013-08-10 07:41:00,51.3,51.3,30.01,North,360,0.0,7.0,100,0.00,,,0.00,Wunderground v.1.15,2013-08-10 14:41:00,
2013-08-10 07:46:00,51.3,51.3,30.01,North,360,0.0,7.0,100,0.00,,,0.00,Wunderground v.1.15,2013-08-10 14:46:00,
2013-08-10 07:51:00,51.4,51.4,30.01,North,360,0.0,7.0,100,0.00,,,0.00,Wunderground v.1.15,2013-08-10 14:51:00,
2013-08-10 07:57:00,51.4,51.4,30.01,North,360,0.0,7.0,100,0.00,,,0.00,Wunderground v.1.15,2013-08-10 14:57:00,
2013-08-10 08:02:00,51.6,51.6,30.01,North,360,0.0,7.0,100,0.00,,,0.00,Wunderground v.1.15,2013-08-10 15:02:00,
2013-08-10 08:07:00,51.6,51.6,30.02,North,360,1.0,7.0,100,0.00,,,0.00,Wunderground v.1.15,2013-08-10 15:07:00,
2013-08-10 08:13:00,51.6,51.6,30.02,North,360,1.0,7.0,100,0.00,,,0.00,Wunderground v.1.15,2013-08-10 15:13:00,
2013-08-10 08:18:00,51.6,51.6,30.02,North,360,0.0,7.0,100,0.00,,,0.00,Wunderground v.1.15,2013-08-10 15:18:00,
2013-08-10 08:23:00,51.7,51.7,30.02,North,360,0.0,7.0,100,0.00,,,0.00,Wunderground v.1.15,2013-08-10 15:23:00,
2013-08-10 08:28:00,51.9,51.9,30.02,North,360,0.0,7.0,100,0.00,,,0.00,Wunderground v.1.15,2013-08-10 15:28:00,
2013-08-10 08:34:00,51.8,51.8,30.02,North,360,1.0,7.0,100,0.00,,,0.00,Wunderground v.1.15,2013-08-10 15:34:00,
2013-08-10 08:39:00,51.7,51.7,30.02,North,360,1.0,7.0,100,0.00,,,0.00,Wunderground v.1.15,2013-08-10 15:39:00,
2013-08-10 08:45:00,51.8,51.8,30.02,North,360,1.0,7.0,100,0.00,,,0.00,Wunderground v.1.15,2013-08-10 15:45:00,
2013-08-10 08:50:00,51.9,51.9,30.02,North,360,1.0,1.0,100,0.00,,,0.00,Wunderground v.1.15,2013-08-10 15:50:00,
2013-08-10 08:55:00,52.1,52.1,30.03,North,360,1.0,7.0,100,0.00,,,0.00,Wunderground v.1.15,2013-08-10 15:55:00,
2013-08-10 09:01:00,52.3,52.3,30.02,North,360,1.0,7.0,100,0.00,,,0.00,Wunderground v.1.15,2013-08-10 16:01:00,
2013-08-10 09:07:00,52.5,52.5,30.03,North,360,1.0,7.0,100,0.00,,,0.00,Wunderground v.1.15,2013-08-10 16:07:00,
2013-08-10 09:13:00,52.3,52.3,30.02,North,360,1.0,7.0,100,0.00,,,0.00,Wunderground v.1.15,2013-08-10 16:13:00,
2013-08-10 09:19:00,52.1,52.1,30.02,North,360,1.0,7.0,100,0.00,,,0.00,Wunderground v.1.15,2013-08-10 16:19:00,
2013-08-10 09:24:00,52.0,52.0,30.02,North,360,0.0,7.0,100,0.00,,,0.00,Wunderground v.1.15,2013-08-10 16:24:00,
2013-08-10 09:29:00,52.1,52.1,30.03,North,360,0.0,7.0,100,0.00,,,0.00,Wunderground v.1.15,2013-08-10 16:29:00,
2013-08-10 09:35:00,52.3,52.3,30.03,North,360,0.0,7.0,100,0.00,,,0.00,Wunderground v.1.15,2013-08-10 16:35:00,
2013-08-10 09:40:00,52.3,52.3,30.03,North,360,1.0,7.0,100,0.00,,,0.00,Wunderground v.1.15,2013-08-10 16:40:00,
2013-08-10 09:46:00,52.1,52.1,30.03,North,360,1.0,7.0,100,0.00,,,0.00,Wunderground v.1.15,2013-08-10 16:46:00,
2013-08-10 09:51:00,52.0,52.0,30.03,North,360,1.0,7.0,100,0.00,,,0.00,Wunderground v.1.15,2013-08-10 16:51:00,
2013-08-10 09:56:00,52.2,52.2,30.03,North,360,1.0,7.0,100,0.00,,,0.00,Wunderground v.1.15,2013-08-10 16:56:00,
2013-08-10 10:02:00,52.3,52.3,30.03,North,360,1.0,7.0,100,0.00,,,0.00,Wunderground v.1.15,2013-08-10 17:02:00,
2013-08-10 10:08:00,52.3,52.3,30.04,North,360,1.0,7.0,100,0.00,,,0.00,Wunderground v.1.15,2013-08-10 17:08:00,
2013-08-10 10:13:00,52.2,52.2,30.04,North,360,2.0,7.0,100,0.00,,,0.00,Wunderground v.1.15,2013-08-10 17:13:00,
2013-08-10 10:18:00,52.1,52.1,30.04,North,360,2.0,7.0,100,0.00,,,0.00,Wunderground v.1.15,2013-08-10 17:18:00,
2013-08-10 10:23:00,52.0,52.0,30.04,North,360,2.0,7.0,100,0.00,,,0.00,Wunderground v.1.15,2013-08-10 17:23:00,
2013-08-10 10:28:00,51.9,51.9,30.04,North,360,2.0,7.0,100,0.00,,,0.00,Wunderground v.1.15,2013-08-10 17:28:00,
2013-08-10 10:34:00,51.9,51.9,30.04,North,360,2.0,7.0,100,0.00,,,0.00,Wunderground v.1.15,2013-08-10 17:34:00,
2013-08-10 10:40:00,52.0,52.0,30.04,North,360,2.0,7.0,100,0.00,,,0.00,Wunderground v.1.15,2013-08-10 17:40:00,
2013-08-10 10:45:00,52.0,52.0,30.04,North,360,2.0,7.0,100,0.00,,,0.00,Wunderground v.1.15,2013-08-10 17:45:00,
2013-08-10 10:51:00,51.8,51.8,30.04,North,360,3.0,7.0,100,0.00,,,0.00,Wunderground v.1.15,2013-08-10 17:51:00,
2013-08-10 10:56:00,51.9,51.9,30.05,North,360,3.0,7.0,100,0.00,,,0.00,Wunderground v.1.15,2013-08-10 17:56:00,
2013-08-10 11:02:00,52.2,52.2,30.05,North,360,3.0,7.0,100,0.00,,,0.00,Wunderground v.1.15,2013-08-10 18:02:00,
2013-08-10 11:08:00,53.1,53.1,30.05,North,360,3.0,7.0,100,0.00,,,0.00,Wunderground v.1.15,2013-08-10 18:08:00,
2013-08-10 11:13:00,53.3,53.3,30.05,North,360,3.0,7.0,100,0.00,,,0.00,Wunderground v.1.15,2013-08-10 18:13:00,
2013-08-10 11:19:00,53.3,53.3,30.05,North,360,3.0,7.0,100,0.00,,,0.00,Wunderground v.1.15,2013-08-10 18:19:00,
2013-08-10 11:25:00,52.9,52.9,30.04,North,360,3.0,7.0,100,0.00,,,0.00,Wunderground v.1.15,2013-08-10 18:25:00,
2013-08-10 11:30:00,52.4,52.4,30.04,North,360,3.0,7.0,100,0.00,,,0.00,Wunderground v.1.15,2013-08-10 18:30:00,
2013-08-10 11:35:00,52.2,52.2,30.04,North,360,3.0,7.0,100,0.00,,,0.00,Wunderground v.1.15,2013-08-10 18:35:00,
2013-08-10 11:40:00,52.7,52.7,30.05,North,360,3.0,3.0,100,0.00,,,0.00,Wunderground v.1.15,2013-08-10 18:40:00,
2013-08-10 11:46:00,52.9,52.9,30.05,North,360,3.0,7.0,100,0.00,,,0.00,Wunderground v.1.15,2013-08-10 18:46:00,
2013-08-10 11:52:00,53.2,53.2,30.05,North,360,2.0,7.0,100,0.00,,,0.00,Wunderground v.1.15,2013-08-10 18:52:00,
2013-08-10 11:58:00,53.3,53.3,30.05,North,360,2.0,7.0,100,0.00,,,0.00,Wunderground v.1.15,2013-08-10 18:58:00,
2013-08-10 12:04:00,52.9,52.9,30.05,North,360,2.0,7.0,100,0.00,,,0.00,Wunderground v.1.15,2013-08-10 19:04:00,
2013-08-10 12:09:00,52.9,52.9,30.05,North,360,3.0,7.0,100,0.00,,,0.00,Wunderground v.1.15,2013-08-10 19:09:00,
2013-08-10 12:15:00,53.1,53.1,30.05,North,360,3.0,7.0,100,0.00,,,0.00,Wunderground v.1.15,2013-08-10 19:15:00,
2013-08-10 12:21:00,53.7,53.7,30.05,North,360,3.0,7.0,100,0.00,,,0.00,Wunderground v.1.15,2013-08-10 19:21:00,
2013-08-10 12:26:00,53.9,53.9,30.05,North,360,3.0,7.0,100,0.00,,,0.00,Wunderground v.1.15,2013-08-10 19:26:00,
2013-08-10 12:31:00,53.7,53.7,30.05,North,360,2.0,7.0,100,0.00,,,0.00,Wunderground v.1.15,2013-08-10 19:31:00,
2013-08-10 12:37:00,53.7,53.7,30.05,North,360,3.0,7.0,100,0.00,,,0.00,Wunderground v.1.15,2013-08-10 19:37:00,
2013-08-10 12:43:00,54.1,54.1,30.05,North,360,3.0,7.0,100,0.00,,,0.00,Wunderground v.1.15,2013-08-10 19:43:00,
2013-08-10 12:48:00,54.3,54.3,30.05,North,360,3.0,7.0,100,0.00,,,0.00,Wunderground v.1.15,2013-08-10 19:48:00,
2013-08-10 12:54:00,54.7,54.7,30.05,North,360,3.0,7.0,100,0.00,,,0.00,Wunderground v.1.15,2013-08-10 19:54:00,
2013-08-10 12:59:00,54.7,54.7,30.05,North,360,3.0,7.0,100,0.00,,,0.00,Wunderground v.1.15,2013-08-10 19:59:00,
2013-08-10 13:04:00,54.8,54.8,30.05,North,360,3.0,7.0,100,0.00,,,0.00,Wunderground v.1.15,2013-08-10 20:04:00,
2013-08-10 13:10:00,54.8,54.8,30.05,North,360,3.0,7.0,100,0.00,,,0.00,Wunderground v.1.15,2013-08-10 20:10:00,
2013-08-10 13:16:00,54.9,54.9,30.05,North,360,3.0,7.0,100,0.00,,,0.00,Wunderground v.1.15,2013-08-10 20:16:00,
2013-08-10 13:22:00,54.7,54.7,30.05,North,360,3.0,7.0,100,0.00,,,0.00,Wunderground v.1.15,2013-08-10 20:22:00,
2013-08-10 13:28:00,54.5,54.5,30.05,North,360,4.0,7.0,100,0.00,,,0.00,Wunderground v.1.15,2013-08-10 20:28:00,
2013-08-10 13:33:00,54.3,54.3,30.05,North,360,4.0,7.0,100,0.00,,,0.00,Wunderground v.1.15,2013-08-10 20:33:00,
2013-08-10 13:38:00,54.0,53.7,30.05,North,360,4.0,7.0,99,0.00,,,0.00,Wunderground v.1.15,2013-08-10 20:38:00,
2013-08-10 13:44:00,54.0,54.0,30.05,North,360,4.0,7.0,100,0.00,,,0.00,Wunderground v.1.15,2013-08-10 20:44:00,
2013-08-10 13:50:00,54.1,54.1,30.05,North,360,4.0,4.0,100,0.00,,,0.00,Wunderground v.1.15,2013-08-10 20:50:00,
2013-08-10 13:56:00,54.1,54.1,30.05,North,360,4.0,7.0,100,0.00,,,0.00,Wunderground v.1.15,2013-08-10 20:56:00,
2013-08-10 14:01:00,53.9,53.6,30.05,North,360,4.0,7.0,99,0.00,,,0.00,Wunderground v.1.15,2013-08-10 21:01:00,
2013-08-10 14:06:00,53.8,53.5,30.05,North,360,4.0,7.0,99,0.00,,,0.00,Wunderground v.1.15,2013-08-10 21:06:00,
2013-08-10 14:12:00,54.0,54.0,30.05,North,360,4.0,7.0,100,0.00,,,0.00,Wunderground v.1.15,2013-08-10 21:12:00,
2013-08-10 14:17:00,54.2,54.2,30.05,North,360,4.0,7.0,100,0.00,,,0.00,Wunderground v.1.15,2013-08-10 21:17:00,
2013-08-10 14:22:00,54.2,54.2,30.05,North,360,3.0,7.0,100,0.00,,,0.00,Wunderground v.1.15,2013-08-10 21:22:00,
2013-08-10 14:28:00,54.2,54.2,30.05,North,360,3.0,7.0,100,0.00,,,0.00,Wunderground v.1.15,2013-08-10 21:28:00,
2013-08-10 14:34:00,54.2,54.2,30.05,North,360,4.0,7.0,100,0.00,,,0.00,Wunderground v.1.15,2013-08-10 21:34:00,
2013-08-10 14:39:00,54.2,54.2,30.05,North,360,5.0,7.0,100,0.00,,,0.00,Wunderground v.1.15,2013-08-10 21:39:00,
2013-08-10 14:45:00,54.7,54.7,30.05,North,360,5.0,7.0,100,0.00,,,0.00,Wunderground v.1.15,2013-08-10 21:45:00,
2013-08-10 14:51:00,54.8,54.8,30.05,North,360,5.0,7.0,100,0.00,,,0.00,Wunderground v.1.15,2013-08-10 21:51:00,
2013-08-10 14:57:00,54.8,54.5,30.05,North,360,5.0,7.0,99,0.00,,,0.00,Wunderground v.1.15,2013-08-10 21:57:00,
2013-08-10 15:02:00,54.4,54.1,30.05,North,360,5.0,7.0,99,0.00,,,0.00,Wunderground v.1.15,2013-08-10 22:02:00,
2013-08-10 15:08:00,54.4,54.1,30.05,North,360,4.0,7.0,99,0.00,,,0.00,Wunderground v.1.15,2013-08-10 22:08:00,
2013-08-10 15:14:00,54.0,53.7,30.05,North,360,4.0,7.0,99,0.00,,,0.00,Wunderground v.1.15,2013-08-10 22:14:00,
2013-08-10 15:20:00,54.2,53.9,30.05,North,360,4.0,4.0,99,0.00,,,0.00,Wunderground v.1.15,2013-08-10 22:20:00,
2013-08-10 15:26:00,54.4,54.1,30.05,North,360,3.0,7.0,99,0.00,,,0.00,Wunderground v.1.15,2013-08-10 22:26:00,
2013-08-10 15:31:00,54.9,54.9,30.05,North,360,3.0,7.0,100,0.00,,,0.00,Wunderground v.1.15,2013-08-10 22:31:00,
2013-08-10 15:35:00,54.9,54.6,30.05,North,360,2.0,7.0,99,0.00,,,0.00,Wunderground v.1.15,2013-08-10 22:35:00,
2013-08-10 15:41:00,55.1,54.8,30.05,North,360,2.0,7.0,99,0.00,,,0.00,Wunderground v.1.15,2013-08-10 22:41:00,
2013-08-10 15:46:00,55.4,55.1,30.05,North,360,2.0,7.0,99,0.00,,,0.00,Wunderground v.1.15,2013-08-10 22:46:00,
2013-08-10 15:51:00,55.5,55.2,30.05,North,360,3.0,7.0,99,0.00,,,0.00,Wunderground v.1.15,2013-08-10 22:51:00,
2013-08-10 15:56:00,55.3,55.0,30.05,North,360,4.0,7.0,99,0.00,,,0.00,Wunderground v.1.15,2013-08-10 22:56:00,
2013-08-10 16:01:00,55.0,54.7,30.05,North,360,4.0,7.0,99,0.00,,,0.00,Wunderground v.1.15,2013-08-10 23:01:00,
2013-08-10 16:07:00,54.9,54.6,30.05,North,360,3.0,7.0,99,0.00,,,0.00,Wunderground v.1.15,2013-08-10 23:07:00,
2013-08-10 16:12:00,55.1,54.8,30.04,North,360,3.0,7.0,99,0.00,,,0.00,Wunderground v.1.15,2013-08-10 23:12:00,
2013-08-10 16:17:00,55.1,54.8,30.05,North,360,3.0,7.0,99,0.00,,,0.00,Wunderground v.1.15,2013-08-10 23:17:00,
2013-08-10 16:23:00,55.4,55.1,30.05,North,360,3.0,7.0,99,0.00,,,0.00,Wunderground v.1.15,2013-08-10 23:23:00,
2013-08-10 16:28:00,55.3,55.0,30.05,North,360,2.0,7.0,99,0.00,,,0.00,Wunderground v.1.15,2013-08-10 23:28:00,
2013-08-10 16:34:00,55.3,55.0,30.05,North,360,2.0,7.0,99,0.00,,,0.00,Wunderground v.1.15,2013-08-10 23:34:00,
2013-08-10 16:40:00,55.2,54.9,30.04,North,360,3.0,7.0,99,0.00,,,0.00,Wunderground v.1.15,2013-08-10 23:40:00,
2013-08-10 16:45:00,55.1,54.8,30.05,North,360,3.0,7.0,99,0.00,,,0.00,Wunderground v.1.15,2013-08-10 23:45:00,
2013-08-10 16:51:00,55.0,54.4,30.05,North,360,3.0,7.0,98,0.00,,,0.00,Wunderground v.1.15,2013-08-10 23:51:00,
2013-08-10 16:57:00,54.9,54.3,30.05,North,360,3.0,7.0,98,0.00,,,0.00,Wunderground v.1.15,2013-08-10 23:57:00,
2013-08-10 17:03:00,54.8,54.5,30.05,North,360,3.0,7.0,99,0.00,,,0.00,Wunderground v.1.15,2013-08-11 00:03:00,
2013-08-10 17:08:00,55.0,54.7,30.05,North,360,3.0,7.0,99,0.00,,,0.00,Wunderground v.1.15,2013-08-11 00:08:00,
2013-08-10 17:13:00,54.9,54.3,30.05,North,360,3.0,7.0,98,0.00,,,0.00,Wunderground v.1.15,2013-08-11 00:13:00,
2013-08-10 17:18:00,55.0,54.4,30.05,North,360,3.0,7.0,98,0.00,,,0.00,Wunderground v.1.15,2013-08-11 00:18:00,
2013-08-10 17:24:00,54.8,54.2,30.05,North,360,3.0,7.0,98,0.00,,,0.00,Wunderground v.1.15,2013-08-11 00:24:00,
2013-08-10 17:29:00,54.7,54.1,30.05,North,360,3.0,7.0,98,0.00,,,0.00,Wunderground v.1.15,2013-08-11 00:29:00,
2013-08-10 17:35:00,54.6,54.3,30.05,North,360,3.0,7.0,99,0.00,,,0.00,Wunderground v.1.15,2013-08-11 00:35:00,
2013-08-10 17:41:00,54.6,54.3,30.06,North,360,3.0,7.0,99,0.00,,,0.00,Wunderground v.1.15,2013-08-11 00:41:00,
2013-08-10 17:46:00,54.4,54.1,30.06,North,360,3.0,7.0,99,0.00,,,0.00,Wunderground v.1.15,2013-08-11 00:46:00,
2013-08-10 17:52:00,54.3,54.0,30.06,North,360,3.0,7.0,99,0.00,,,0.00,Wunderground v.1.15,2013-08-11 00:52:00,
2013-08-10 17:58:00,54.3,54.0,30.06,North,360,3.0,7.0,99,0.00,,,0.00,Wunderground v.1.15,2013-08-11 00:58:00,
2013-08-10 18:04:00,54.3,54.0,30.06,North,360,2.0,7.0,99,0.00,,,0.00,Wunderground v.1.15,2013-08-11 01:04:00,
2013-08-10 18:10:00,54.0,53.7,30.06,North,360,3.0,7.0,99,0.00,,,0.00,Wunderground v.1.15,2013-08-11 01:10:00,
2013-08-10 18:15:00,53.9,53.6,30.06,North,360,3.0,7.0,99,0.00,,,0.00,Wunderground v.1.15,2013-08-11 01:15:00,
2013-08-10 18:21:00,53.9,53.6,30.06,North,360,2.0,7.0,99,0.00,,,0.00,Wunderground v.1.15,2013-08-11 01:21:00,
2013-08-10 18:26:00,53.9,53.6,30.06,North,360,3.0,7.0,99,0.00,,,0.00,Wunderground v.1.15,2013-08-11 01:26:00,
2013-08-10 18:32:00,53.7,53.4,30.06,North,360,3.0,7.0,99,0.00,,,0.00,Wunderground v.1.15,2013-08-11 01:32:00,
2013-08-10 18:38:00,53.6,53.3,30.06,North,360,2.0,7.0,99,0.00,,,0.00,Wunderground v.1.15,2013-08-11 01:38:00,
2013-08-10 18:44:00,53.8,53.5,30.06,North,360,2.0,7.0,99,0.00,,,0.00,Wunderground v.1.15,2013-08-11 01:44:00,
2013-08-10 18:49:00,53.9,53.6,30.06,North,360,3.0,7.0,99,0.00,,,0.00,Wunderground v.1.15,2013-08-11 01:49:00,
2013-08-10 18:55:00,53.7,53.4,30.06,North,360,2.0,7.0,99,0.00,,,0.00,Wunderground v.1.15,2013-08-11 01:55:00,
2013-08-10 19:01:00,53.7,53.4,30.06,North,360,2.0,7.0,99,0.00,,,0.00,Wunderground v.1.15,2013-08-11 02:01:00,
2013-08-10 19:07:00,53.7,53.4,30.06,North,360,2.0,7.0,99,0.00,,,0.00,Wunderground v.1.15,2013-08-11 02:07:00,
2013-08-10 19:12:00,53.7,53.4,30.06,North,360,2.0,7.0,99,0.00,,,0.00,Wunderground v.1.15,2013-08-11 02:12:00,
2013-08-10 19:18:00,53.8,53.5,30.06,North,360,2.0,7.0,99,0.00,,,0.00,Wunderground v.1.15,2013-08-11 02:18:00,
2013-08-10 19:24:00,53.8,53.5,30.06,North,360,2.0,7.0,99,0.00,,,0.00,Wunderground v.1.15,2013-08-11 02:24:00,
2013-08-10 19:29:00,53.9,53.6,30.05,North,360,3.0,7.0,99,0.00,,,0.00,Wunderground v.1.15,2013-08-11 02:29:00,
2013-08-10 19:34:00,54.2,53.9,30.06,North,360,3.0,7.0,99,0.00,,,0.00,Wunderground v.1.15,2013-08-11 02:34:00,
2013-08-10 19:40:00,54.2,53.9,30.06,North,360,2.0,2.0,99,0.00,,,0.00,Wunderground v.1.15,2013-08-11 02:40:00,
2013-08-10 19:46:00,54.2,53.9,30.05,North,360,2.0,7.0,99,0.00,,,0.00,Wunderground v.1.15,2013-08-11 02:46:00,
2013-08-10 19:55:00,54.2,53.9,30.05,North,360,2.0,7.0,99,0.00,,,0.00,Wunderground v.1.15,2013-08-11 02:55:00,
2013-08-10 20:00:00,53.9,53.6,30.05,North,360,2.0,7.0,99,0.00,,,0.00,Wunderground v.1.15,2013-08-11 03:00:00,
2013-08-10 20:06:00,53.7,53.4,30.05,North,360,1.0,7.0,99,0.00,,,0.00,Wunderground v.1.15,2013-08-11 03:06:00,
2013-08-10 20:12:00,53.7,53.4,30.05,North,360,1.0,7.0,99,0.00,,,0.00,Wunderground v.1.15,2013-08-11 03:12:00,
2013-08-10 20:18:00,53.9,53.6,30.05,North,360,1.0,7.0,99,0.00,,,0.00,Wunderground v.1.15,2013-08-11 03:18:00,
2013-08-10 20:23:00,53.7,53.4,30.05,North,360,2.0,7.0,99,0.00,,,0.00,Wunderground v.1.15,2013-08-11 03:23:00,
2013-08-10 20:28:00,53.6,53.3,30.05,North,360,1.0,7.0,99,0.00,,,0.00,Wunderground v.1.15,2013-08-11 03:28:00,
2013-08-10 20:34:00,53.6,53.3,30.05,North,360,1.0,7.0,99,0.00,,,0.00,Wunderground v.1.15,2013-08-11 03:34:00,
2013-08-10 20:40:00,53.6,53.3,30.05,North,360,1.0,1.0,99,0.00,,,0.00,Wunderground v.1.15,2013-08-11 03:40:00,
2013-08-10 20:46:00,53.5,53.2,30.05,North,360,1.0,7.0,99,0.00,,,0.00,Wunderground v.1.15,2013-08-11 03:46:00,
2013-08-10 20:52:00,53.7,53.4,30.05,North,360,2.0,7.0,99,0.00,,,0.00,Wunderground v.1.15,2013-08-11 03:52:00,
2013-08-10 20:57:00,53.7,53.4,30.05,North,360,2.0,7.0,99,0.00,,,0.00,Wunderground v.1.15,2013-08-11 03:57:00,
2013-08-10 21:01:00,53.7,53.4,30.05,North,360,2.0,7.0,99,0.00,,,0.00,Wunderground v.1.15,2013-08-11 04:01:00,
2013-08-10 21:02:00,53.7,53.4,30.05,North,360,2.0,7.0,99,0.00,,,0.00,Wunderground v.1.15,2013-08-11 04:02:00,
2013-08-10 21:03:00,53.7,53.4,30.05,North,360,2.0,7.0,99,0.00,,,0.00,Wunderground v.1.15,2013-08-11 04:03:00,
2013-08-10 21:04:00,53.7,53.4,30.05,North,360,2.0,7.0,99,0.00,,,0.00,Wunderground v.1.15,2013-08-11 04:04:00,
2013-08-10 21:08:00,53.8,53.5,30.05,North,360,2.0,7.0,99,0.00,,,0.00,Wunderground v.1.15,2013-08-11 04:08:00,
2013-08-10 21:13:00,53.9,53.6,30.05,North,360,1.0,7.0,99,0.00,,,0.00,Wunderground v.1.15,2013-08-11 04:13:00,
2013-08-10 21:18:00,54.0,53.7,30.05,North,360,1.0,7.0,99,0.00,,,0.00,Wunderground v.1.15,2013-08-11 04:18:00,
2013-08-10 21:24:00,54.0,53.7,30.06,North,360,1.0,7.0,99,0.00,,,0.00,Wunderground v.1.15,2013-08-11 04:24:00,
2013-08-10 21:30:00,54.0,53.7,30.06,North,360,1.0,7.0,99,0.00,,,0.00,Wunderground v.1.15,2013-08-11 04:30:00,
2013-08-10 21:36:00,54.2,53.9,30.06,North,360,2.0,7.0,99,0.00,,,0.00,Wunderground v.1.15,2013-08-11 04:36:00,
2013-08-10 21:41:00,54.0,53.7,30.06,North,360,1.0,7.0,99,0.00,,,0.00,Wunderground v.1.15,2013-08-11 04:41:00,
2013-08-10 21:47:00,53.8,53.5,30.07,North,360,1.0,7.0,99,0.00,,,0.00,Wunderground v.1.15,2013-08-11 04:47:00,
2013-08-10 21:53:00,53.9,53.6,30.07,North,360,1.0,7.0,99,0.00,,,0.00,Wunderground v.1.15,2013-08-11 04:53:00,
2013-08-10 21:58:00,54.0,53.7,30.07,North,360,1.0,7.0,99,0.00,,,0.00,Wunderground v.1.15,2013-08-11 04:58:00,
2013-08-10 22:04:00,54.0,53.7,30.07,North,360,2.0,7.0,99,0.00,,,0.00,Wunderground v.1.15,2013-08-11 05:04:00,
2013-08-10 22:09:00,53.8,53.5,30.07,North,360,2.0,7.0,99,0.00,,,0.00,Wunderground v.1.15,2013-08-11 05:09:00,
2013-08-10 22:16:00,53.9,53.6,30.07,North,360,2.0,7.0,99,0.00,,,0.00,Wunderground v.1.15,2013-08-11 05:16:00,
2013-08-10 22:22:00,53.9,53.6,30.07,North,360,2.0,7.0,99,0.00,,,0.00,Wunderground v.1.15,2013-08-11 05:22:00,
2013-08-10 22:30:00,53.8,53.5,30.07,North,360,2.0,7.0,99,0.00,,,0.00,Wunderground v.1.15,2013-08-11 05:30:00,
2013-08-10 22:35:00,53.7,53.4,30.07,North,360,2.0,7.0,99,0.00,,,0.00,Wunderground v.1.15,2013-08-11 05:35:00,
2013-08-10 22:41:00,53.5,53.2,30.07,North,360,2.0,7.0,99,0.00,,,0.00,Wunderground v.1.15,2013-08-11 05:41:00,
2013-08-10 22:47:00,53.6,53.3,30.07,North,360,1.0,7.0,99,0.00,,,0.00,Wunderground v.1.15,2013-08-11 05:47:00,
2013-08-10 22:54:00,53.5,53.2,30.07,North,360,1.0,7.0,99,0.00,,,0.00,Wunderground v.1.15,2013-08-11 05:54:00,
2013-08-10 23:03:00,53.7,53.4,30.07,North,360,2.0,7.0,99,0.00,,,0.00,Wunderground v.1.15,2013-08-11 06:03:00,
2013-08-10 23:08:00,54.0,53.7,30.07,North,360,2.0,7.0,99,0.00,,,0.00,Wunderground v.1.15,2013-08-11 06:08:00,
2013-08-10 23:14:00,54.1,53.8,30.07,North,360,2.0,7.0,99,0.00,,,0.00,Wunderground v.1.15,2013-08-11 06:14:00,
2013-08-10 23:20:00,54.4,54.1,30.07,North,360,1.0,7.0,99,0.00,,,0.00,Wunderground v.1.15,2013-08-11 06:20:00,
2013-08-10 23:25:00,54.6,54.3,30.07,North,360,1.0,7.0,99,0.00,,,0.00,Wunderground v.1.15,2013-08-11 06:25:00,
2013-08-10 23:31:00,54.6,54.3,30.07,North,360,1.0,7.0,99,0.00,,,0.00,Wunderground v.1.15,2013-08-11 06:31:00,
2013-08-10 23:37:00,54.5,54.2,30.07,North,360,0.0,7.0,99,0.00,,,0.00,Wunderground v.1.15,2013-08-11 06:37:00,
2013-08-10 23:43:00,54.5,54.2,30.07,North,360,1.0,7.0,99,0.00,,,0.00,Wunderground v.1.15,2013-08-11 06:43:00,
2013-08-10 23:48:00,54.5,54.2,30.07,North,360,1.0,7.0,99,0.00,,,0.00,Wunderground v.1.15,2013-08-11 06:48:00,
2013-08-10 23:53:00,54.2,53.6,30.07,North,360,1.0,7.0,98,0.00,,,0.00,Wunderground v.1.15,2013-08-11 06:53:00,